Time;durP1;ratioP1;P1;durP2;ratioP2;P2;SDS_P1;SDS_P2;PMS_P1;PMS_P2;Temp;Humidity;BMP_temperature;BMP_pressure;BME280_temperature;BME280_humidity;BME280_pressure;Samples;Min_cycle;Max_cycle;Signal;HPM_P1;HPM_P2
2022/01/09 00:00:15;;;;;;;0.90;0.90;;;;;;;7.48;61.58;98355.22;681833;29;984;-83
2022/01/09 00:00:37;;;;;;;0.90;0.90;;;;;;;7.38;61.99;98343.09;680067;29;875;-82
2022/01/09 00:00:57;;;;;;;0.95;0.95;;;;;;;7.39;61.79;98335.31;679848;29;769;-82
2022/01/09 00:01:20;;;;;;;0.90;0.90;;;;;;;7.45;61.98;98339.66;679403;29;1380;-82
2022/01/09 00:01:41;;;;;;;0.80;0.80;;;;;;;7.43;61.84;98341.38;681766;29;1455;-82
2022/01/09 00:02:02;;;;;;;0.83;0.83;;;;;;;7.45;61.81;98333.59;685210;28;1484;-82
2022/01/09 00:02:23;;;;;;;0.80;0.80;;;;;;;7.42;61.78;98333.59;684538;28;1185;-83
2022/01/09 00:02:44;;;;;;;0.97;0.97;;;;;;;7.43;61.81;98330.97;688985;28;1171;-83
2022/01/09 00:03:08;;;;;;;1.10;1.00;;;;;;;7.47;61.88;98348.31;682567;28;1110;-83
2022/01/09 00:03:28;;;;;;;1.30;1.20;;;;;;;7.40;61.58;98334.47;682337;28;1550;-83
2022/01/09 00:03:50;;;;;;;1.20;1.20;;;;;;;7.43;61.89;98351.75;684416;28;1024;-83
2022/01/09 00:04:10;;;;;;;1.16;1.16;;;;;;;7.46;62.22;98345.69;685032;28;1356;-82
2022/01/09 00:04:31;;;;;;;1.20;1.20;;;;;;;7.42;62.14;98338.78;679617;29;1531;-82
2022/01/09 00:05:00;;;;;;;1.00;1.00;;;;;;;7.44;62.03;98331.88;671849;29;1291;-83
2022/01/09 00:05:20;;;;;;;0.90;0.90;;;;;;;7.43;62.26;98327.53;679790;29;2126;-83
2022/01/09 00:05:41;;;;;;;0.80;0.80;;;;;;;7.46;61.87;98330.13;677443;29;820;-83
2022/01/09 00:06:02;;;;;;;1.10;1.00;;;;;;;7.46;61.72;98320.63;677319;29;1194;-83
2022/01/09 00:06:22;;;;;;;4.80;1.30;;;;;;;7.47;61.62;98322.34;682237;29;990;-83
2022/01/09 00:06:43;;;;;;;5.00;1.38;;;;;;;7.51;62.10;98325.81;685209;28;776;-82
2022/01/09 00:07:03;;;;;;;4.90;1.20;;;;;;;7.51;62.05;98333.59;682583;29;1178;-83
2022/01/09 00:07:24;;;;;;;1.10;1.00;;;;;;;7.47;61.68;98327.53;682555;28;1293;-84
2022/01/09 00:07:46;;;;;;;1.20;1.00;;;;;;;7.42;62.03;98318.03;679079;29;1588;-83
2022/01/09 00:08:06;;;;;;;1.20;1.10;;;;;;;7.46;62.08;98325.81;677582;29;1567;-83
2022/01/09 00:08:27;;;;;;;1.20;1.10;;;;;;;7.48;62.09;98325.81;681035;28;1539;-82
2022/01/09 00:08:47;;;;;;;1.00;1.00;;;;;;;7.45;62.08;98318.03;685280;28;1915;-82
2022/01/09 00:09:08;;;;;;;0.90;0.90;;;;;;;7.47;62.37;98319.75;682366;29;1032;-82
2022/01/09 00:09:29;;;;;;;0.80;0.80;;;;;;;7.50;62.22;98330.13;676555;29;1101;-82
2022/01/09 00:09:49;;;;;;;0.90;0.90;;;;;;;7.44;61.94;98316.28;679729;29;1192;-82
2022/01/09 00:10:32;;;;;;;1.00;1.00;;;;;;;7.48;62.49;98326.69;687178;28;1769;-82
2022/01/09 00:10:53;;;;;;;1.70;1.00;;;;;;;7.42;62.42;98334.44;684016;28;1739;-82
2022/01/09 00:11:14;;;;;;;1.60;1.10;;;;;;;7.44;62.48;98326.69;681727;28;2374;-82
2022/01/09 00:11:35;;;;;;;1.80;1.00;;;;;;;7.46;62.39;98319.75;682243;28;1811;-82
2022/01/09 00:11:56;;;;;;;1.10;1.00;;;;;;;7.46;62.15;98324.94;681505;29;1682;-82
2022/01/09 00:12:16;;;;;;;1.00;0.90;;;;;;;7.48;62.38;98323.19;684799;28;1378;-82
2022/01/09 00:12:37;;;;;;;0.85;0.85;;;;;;;7.47;62.17;98332.75;685531;28;721;-82
2022/01/09 00:12:59;;;;;;;0.80;0.80;;;;;;;7.44;62.63;98318.91;680787;28;1988;-83
2022/01/09 00:13:20;;;;;;;0.90;0.90;;;;;;;7.45;62.43;98323.22;681764;29;1681;-83
2022/01/09 00:13:42;;;;;;;1.17;1.00;;;;;;;7.49;62.71;98324.97;679761;29;1637;-83
2022/01/09 00:14:02;;;;;;;1.20;1.10;;;;;;;7.48;62.43;98313.69;684187;28;1783;-83
2022/01/09 00:14:23;;;;;;;1.15;1.05;;;;;;;7.47;62.51;98308.50;684765;28;1838;-82
2022/01/09 00:14:43;;;;;;;0.90;0.90;;;;;;;7.53;62.47;98316.31;682470;29;1583;-82
2022/01/09 00:15:05;;;;;;;1.00;1.00;;;;;;;7.52;62.26;98317.16;677084;29;1883;-83
2022/01/09 00:15:26;;;;;;;1.10;1.10;;;;;;;7.43;62.46;98317.16;678608;29;1110;-83
2022/01/09 00:15:47;;;;;;;1.05;1.05;;;;;;;7.52;62.44;98330.16;680971;29;745;-83
2022/01/09 00:16:07;;;;;;;1.10;0.97;;;;;;;7.49;62.55;98320.63;680086;29;1073;-83
2022/01/09 00:16:28;;;;;;;1.40;1.00;;;;;;;7.51;62.17;98315.44;682158;29;1081;-83
2022/01/09 00:16:49;;;;;;;1.40;1.00;;;;;;;7.53;62.53;98311.09;682748;28;1586;-83
2022/01/09 00:17:09;;;;;;;1.00;1.00;;;;;;;7.51;62.50;98311.09;685429;28;968;-82
2022/01/09 00:17:30;;;;;;;0.97;0.97;;;;;;;7.46;62.49;98312.84;682435;29;1151;-83
2022/01/09 00:17:51;;;;;;;0.90;0.90;;;;;;;7.33;62.75;98317.16;674782;29;1522;-83
2022/01/09 00:18:11;;;;;;;0.90;0.90;;;;;;;7.46;62.98;98319.75;674616;29;1670;-83
2022/01/09 00:18:32;;;;;;;0.93;0.90;;;;;;;7.47;62.85;98316.28;679891;29;1310;-82
2022/01/09 00:18:53;;;;;;;1.00;0.90;;;;;;;7.45;63.01;98318.91;680198;29;1099;-81
2022/01/09 00:19:13;;;;;;;0.90;0.90;;;;;;;7.42;63.02;98311.09;682508;28;1231;-83
2022/01/09 00:19:34;;;;;;;0.93;0.93;;;;;;;7.53;62.53;98318.91;677099;29;1340;-82
2022/01/09 00:19:55;;;;;;;1.00;1.00;;;;;;;7.45;62.63;98312.84;674715;29;1190;-82
2022/01/09 00:20:16;;;;;;;0.97;0.97;;;;;;;7.49;62.63;98309.41;674595;29;1132;-82
2022/01/09 00:20:36;;;;;;;0.80;0.80;;;;;;;7.42;62.60;98312.84;680180;29;1273;-83
2022/01/09 00:20:58;;;;;;;0.90;0.90;;;;;;;7.45;62.66;98312.84;685532;28;1614;-83
2022/01/09 00:21:19;;;;;;;0.90;0.90;;;;;;;7.48;62.55;98299.84;682665;29;1093;-82
2022/01/09 00:21:39;;;;;;;1.10;1.00;;;;;;;7.50;62.60;98301.59;680287;29;741;-82
2022/01/09 00:22:00;;;;;;;1.10;1.00;;;;;;;7.53;62.53;98303.31;677348;29;1788;-82
2022/01/09 00:22:31;;;;;;;0.90;0.90;;;;;;;7.49;62.41;98309.41;682724;28;1196;-83
2022/01/09 00:22:55;;;;;;;0.73;0.73;;;;;;;7.45;62.39;98311.13;679776;29;2289;-82
2022/01/09 00:23:49;;;;;;;0.90;0.90;;;;;;;7.46;62.78;98310.25;682373;29;1585;-83
2022/01/09 00:24:10;;;;;;;1.00;0.90;;;;;;;7.38;62.43;98296.41;677143;29;953;-83
2022/01/09 00:24:30;;;;;;;0.93;0.90;;;;;;;7.38;62.53;98302.44;679834;29;1191;-83
2022/01/09 00:24:51;;;;;;;0.80;0.80;;;;;;;7.38;62.86;98310.22;680084;29;1163;-83
2022/01/09 00:25:24;;;;;;;0.85;0.85;;;;;;;7.37;62.92;98305.06;680170;29;1225;-83
2022/01/09 00:25:45;;;;;;;1.00;1.00;;;;;;;7.42;63.00;98311.09;675690;29;1551;-83
2022/01/09 00:26:27;;;;;;;1.00;1.00;;;;;;;7.46;62.70;98314.56;677715;29;1149;-83
2022/01/09 00:26:48;;;;;;;0.90;0.90;;;;;;;7.43;62.50;98315.41;680226;29;808;-82
2022/01/09 00:27:08;;;;;;;0.90;0.90;;;;;;;7.38;62.75;98297.25;679548;29;1270;-83
2022/01/09 00:27:29;;;;;;;0.90;0.90;;;;;;;7.43;62.70;98304.19;680040;29;1242;-82
2022/01/09 00:27:50;;;;;;;0.80;0.80;;;;;;;7.32;62.73;98302.47;676490;29;1041;-82
2022/01/09 00:28:11;;;;;;;0.80;0.80;;;;;;;7.30;62.60;98298.97;679418;29;1575;-82
2022/01/09 00:28:32;;;;;;;0.90;0.90;;;;;;;7.37;62.94;98311.09;680323;29;1293;-82
2022/01/09 00:28:52;;;;;;;1.00;1.00;;;;;;;7.37;62.96;98316.28;682695;29;1974;-82
2022/01/09 00:29:13;;;;;;;1.00;1.00;;;;;;;7.33;63.16;98304.19;685296;28;1535;-82
2022/01/09 00:29:34;;;;;;;0.90;0.90;;;;;;;7.29;63.04;98292.06;679802;29;1441;-83
2022/01/09 00:29:54;;;;;;;0.80;0.80;;;;;;;7.37;62.85;98295.53;685327;28;1302;-83
2022/01/09 00:30:30;;;;;;;0.90;0.90;;;;;;;7.38;62.87;98307.63;681524;28;1114;-82
2022/01/09 00:30:51;;;;;;;0.90;0.90;;;;;;;7.39;63.26;98311.94;681932;28;1439;-82
2022/01/09 00:31:11;;;;;;;0.70;0.70;;;;;;;7.39;62.74;98311.09;680190;29;1241;-83
2022/01/09 00:31:32;;;;;;;0.80;0.80;;;;;;;7.32;63.18;98301.59;677647;29;1304;-82
2022/01/09 00:31:53;;;;;;;0.80;0.80;;;;;;;7.37;63.18;98300.72;674943;29;1082;-83
2022/01/09 00:32:14;;;;;;;0.90;0.90;;;;;;;7.32;62.95;98292.09;674708;29;1775;-82
2022/01/09 00:32:35;;;;;;;0.87;0.87;;;;;;;7.32;63.36;98297.28;675042;29;1022;-82
2022/01/09 00:32:57;;;;;;;0.80;0.80;;;;;;;7.38;63.12;98307.63;680272;29;1091;-82
2022/01/09 00:33:21;;;;;;;0.80;0.80;;;;;;;7.35;62.72;98298.97;685167;28;1116;-82
2022/01/09 00:33:42;;;;;;;0.80;0.80;;;;;;;7.29;62.72;98297.25;685527;28;807;-83
2022/01/09 00:34:02;;;;;;;0.90;0.80;;;;;;;7.28;63.52;98290.34;680004;29;1156;-83
2022/01/09 00:34:23;;;;;;;0.90;0.80;;;;;;;7.27;63.48;98293.78;676193;29;1074;-82
2022/01/09 00:34:43;;;;;;;0.98;0.90;;;;;;;7.22;63.58;98296.38;677365;29;1149;-82
2022/01/09 00:36:01;;;;;;;0.80;0.80;;;;;;;7.35;62.97;98307.63;677667;29;803;-83
2022/01/09 00:36:21;;;;;;;0.60;0.60;;;;;;;7.30;63.17;98298.13;675861;29;1097;-85
2022/01/09 00:36:42;;;;;;;0.70;0.70;;;;;;;7.32;62.92;98291.19;679726;29;1294;-85
2022/01/09 00:37:03;;;;;;;0.70;0.70;;;;;;;7.27;63.35;98288.59;679737;29;1751;-84
2022/01/09 00:37:23;;;;;;;0.80;0.80;;;;;;;7.25;63.40;98280.81;679456;29;1131;-84
2022/01/09 00:37:44;;;;;;;0.80;0.80;;;;;;;7.23;63.40;98289.44;677734;29;947;-85
2022/01/09 00:38:05;;;;;;;0.77;0.77;;;;;;;7.26;63.25;98289.47;672416;29;1247;-85
2022/01/09 00:38:25;;;;;;;0.80;0.80;;;;;;;7.20;63.62;98281.69;679827;29;1550;-84
2022/01/09 00:38:46;;;;;;;0.70;0.70;;;;;;;7.15;63.18;98284.25;680353;29;714;-85
2022/01/09 00:39:06;;;;;;;0.70;0.70;;;;;;;7.18;63.79;98289.44;685447;28;1243;-85
2022/01/09 00:39:27;;;;;;;0.70;0.70;;;;;;;7.18;63.79;98288.59;685161;28;1036;-85
2022/01/09 00:40:12;;;;;;;0.70;0.70;;;;;;;7.31;63.34;98297.25;682354;29;1248;-84
2022/01/09 00:40:33;;;;;;;0.70;0.70;;;;;;;7.24;63.38;98289.47;683019;29;800;-83
2022/01/09 00:40:53;;;;;;;0.80;0.80;;;;;;;7.27;63.22;98289.44;681067;28;698;-85
2022/01/09 00:41:14;;;;;;;0.80;0.80;;;;;;;7.20;63.45;98281.69;682395;29;1680;-85
2022/01/09 00:41:35;;;;;;;0.90;0.90;;;;;;;7.22;63.76;98275.63;682899;29;1090;-84
2022/01/09 00:41:55;;;;;;;0.90;0.90;;;;;;;7.26;63.24;98277.34;677646;29;1313;-84
2022/01/09 00:42:16;;;;;;;0.90;0.90;;;;;;;7.25;63.21;98277.38;677179;29;1771;-84
2022/01/09 00:42:37;;;;;;;0.90;0.90;;;;;;;7.28;63.42;98279.97;674164;29;1215;-84
2022/01/09 00:42:57;;;;;;;0.90;0.90;;;;;;;7.30;63.40;98283.41;679467;29;1703;-85
2022/01/09 00:43:18;;;;;;;0.90;0.90;;;;;;;7.29;63.38;98273.91;676980;29;1058;-84
2022/01/09 00:43:39;;;;;;;0.90;0.90;;;;;;;7.36;63.33;98290.31;680367;29;808;-84
2022/01/09 00:43:59;;;;;;;0.90;0.90;;;;;;;7.31;63.22;98285.13;680221;29;1283;-84
2022/01/09 00:44:20;;;;;;;1.60;0.90;;;;;;;7.30;63.44;98280.81;677028;29;1222;-84
2022/01/09 00:44:40;;;;;;;1.40;0.80;;;;;;;7.29;63.66;98276.50;677589;29;1244;-84
2022/01/09 00:45:02;;;;;;;1.20;0.77;;;;;;;7.30;63.31;98280.81;680288;29;811;-85
2022/01/09 00:45:23;;;;;;;0.80;0.80;;;;;;;7.24;63.64;98278.22;682197;29;1804;-85
2022/01/09 00:45:43;;;;;;;0.80;0.80;;;;;;;7.24;63.09;98267.84;682817;29;797;-85
2022/01/09 00:46:04;;;;;;;0.90;0.90;;;;;;;7.26;63.17;98281.69;674981;29;1319;-84
2022/01/09 00:46:25;;;;;;;1.00;1.00;;;;;;;7.26;63.13;98268.72;680073;29;1132;-84
2022/01/09 00:46:45;;;;;;;1.00;1.00;;;;;;;7.25;63.75;98272.19;680178;29;917;-84
2022/01/09 00:47:06;;;;;;;1.10;1.00;;;;;;;7.22;63.85;98270.44;685450;28;1154;-85
2022/01/09 00:47:26;;;;;;;1.20;1.10;;;;;;;7.27;63.35;98278.22;682787;28;1203;-84
2022/01/09 00:47:47;;;;;;;1.15;1.05;;;;;;;7.30;63.59;98273.03;677629;29;1203;-84
2022/01/09 00:48:09;;;;;;;0.90;0.90;;;;;;;7.30;63.52;98286.00;677348;29;1151;-85
2022/01/09 00:48:30;;;;;;;0.90;0.90;;;;;;;7.23;63.48;98271.28;682197;29;2016;-84
2022/01/09 00:48:51;;;;;;;1.00;1.00;;;;;;;7.22;63.19;98266.97;680081;29;1966;-84
2022/01/09 00:49:11;;;;;;;1.00;1.00;;;;;;;7.22;63.43;98264.38;682586;28;1025;-85
2022/01/09 00:49:32;;;;;;;1.10;1.00;;;;;;;7.19;63.81;98278.19;681801;29;1155;-85
2022/01/09 00:49:52;;;;;;;1.08;0.98;;;;;;;7.18;63.91;98267.84;682292;29;772;-84
2022/01/09 00:50:15;;;;;;;0.90;0.90;;;;;;;7.18;63.70;98270.44;680127;29;1281;-84
2022/01/09 00:50:38;;;;;;;0.70;0.70;;;;;;;7.23;63.53;98271.28;677701;29;1397;-84
2022/01/09 00:50:59;;;;;;;0.80;0.80;;;;;;;7.25;63.87;98272.19;682976;28;828;-84
2022/01/09 00:51:19;;;;;;;0.90;0.90;;;;;;;7.21;63.62;98268.72;677285;29;1284;-84
2022/01/09 00:51:58;;;;;;;1.10;1.00;;;;;;;7.22;63.99;98277.34;675169;29;698;-84
2022/01/09 00:52:19;;;;;;;1.23;0.90;;;;;;;7.24;63.94;98275.59;679887;28;1156;-84
2022/01/09 00:52:39;;;;;;;1.20;0.80;;;;;;;7.26;63.49;98277.34;679833;29;1154;-85
2022/01/09 00:53:00;;;;;;;1.50;0.80;;;;;;;7.29;63.61;98273.06;677612;29;1046;-84
2022/01/09 00:53:20;;;;;;;0.90;0.70;;;;;;;7.25;64.11;98274.78;676625;29;1630;-84
2022/01/09 00:53:41;;;;;;;0.80;0.80;;;;;;;7.27;63.83;98276.47;672346;29;1734;-85
2022/01/09 00:54:01;;;;;;;1.10;0.80;;;;;;;7.21;63.52;98255.75;680205;29;1164;-84
2022/01/09 00:54:22;;;;;;;1.30;1.00;;;;;;;7.25;63.91;98270.44;680959;29;1651;-85
2022/01/09 00:54:43;;;;;;;1.30;1.00;;;;;;;7.24;63.43;98267.84;679345;29;1202;-84
2022/01/09 00:55:05;;;;;;;0.97;0.97;;;;;;;7.20;63.52;98271.31;680144;29;1182;-85
2022/01/09 00:55:26;;;;;;;0.98;0.98;;;;;;;7.24;63.68;98278.22;680701;29;1966;-84
2022/01/09 00:55:46;;;;;;;0.97;0.97;;;;;;;7.24;63.30;98267.84;679385;29;1390;-84
2022/01/09 00:56:07;;;;;;;1.05;1.00;;;;;;;7.11;63.76;98262.66;680016;29;1185;-84
2022/01/09 00:56:27;;;;;;;1.10;1.00;;;;;;;7.23;63.98;98272.16;681541;29;1105;-84
2022/01/09 00:57:03;;;;;;;1.00;1.00;;;;;;;7.16;64.30;98264.38;680127;29;773;-85
2022/01/09 00:57:30;;;;;;;0.98;0.90;;;;;;;7.17;64.29;98272.16;685379;28;1037;-84
2022/01/09 00:57:51;;;;;;;1.00;0.90;;;;;;;7.13;64.13;98260.91;680092;29;796;-84
2022/01/09 00:58:11;;;;;;;0.83;0.70;;;;;;;7.20;64.21;98260.94;685233;28;1596;-84
2022/01/09 00:58:32;;;;;;;0.82;0.80;;;;;;;7.15;64.31;98265.22;679673;29;1322;-84
2022/01/09 00:58:52;;;;;;;0.95;0.85;;;;;;;7.18;64.08;98260.06;680301;29;944;-84
2022/01/09 00:59:13;;;;;;;1.10;1.00;;;;;;;7.18;64.00;98263.50;682660;29;1100;-84
2022/01/09 00:59:33;;;;;;;1.10;1.00;;;;;;;7.22;64.50;98262.66;682368;28;1201;-84
2022/01/09 01:00:00;;;;;;;1.50;1.10;;;;;;;7.25;63.82;98256.63;682589;29;820;-85
2022/01/09 01:00:21;;;;;;;1.40;1.10;;;;;;;7.29;63.57;98271.31;681827;29;1745;-85
2022/01/09 01:00:41;;;;;;;1.30;1.20;;;;;;;7.24;63.66;98257.47;677653;29;753;-84
2022/01/09 01:01:02;;;;;;;1.48;1.38;;;;;;;7.24;63.92;98260.94;688281;28;1147;-84
2022/01/09 01:01:23;;;;;;;1.45;1.35;;;;;;;7.23;63.86;98256.59;681206;29;1312;-84
2022/01/09 01:01:43;;;;;;;1.37;1.27;;;;;;;7.24;63.97;98252.28;674887;29;1178;-84
2022/01/09 01:02:04;;;;;;;1.10;1.00;;;;;;;7.29;63.66;98266.13;679165;29;1798;-84
2022/01/09 01:02:25;;;;;;;3.70;1.00;;;;;;;7.24;64.06;98247.06;682527;29;1159;-84
2022/01/09 01:02:45;;;;;;;3.60;0.90;;;;;;;7.28;63.99;98269.56;683284;28;792;-84
2022/01/09 01:03:06;;;;;;;3.30;0.90;;;;;;;7.25;63.98;98259.22;679877;29;1065;-84
2022/01/09 01:03:26;;;;;;;0.90;0.90;;;;;;;7.24;63.97;98254.84;679974;29;1053;-84
2022/01/09 01:03:47;;;;;;;1.00;0.90;;;;;;;7.29;63.55;98263.53;682767;29;1057;-84
2022/01/09 01:04:08;;;;;;;1.07;1.00;;;;;;;7.22;63.90;98254.88;679984;29;1298;-84
2022/01/09 01:04:28;;;;;;;1.08;1.00;;;;;;;7.30;64.13;98262.66;675362;29;1085;-83
2022/01/09 01:04:51;;;;;;;0.90;0.90;;;;;;;7.23;63.69;98263.50;677543;29;1275;-84
2022/01/09 01:05:12;;;;;;;1.13;0.90;;;;;;;7.19;64.24;98254.00;677531;29;1082;-84
2022/01/09 01:05:33;;;;;;;1.30;0.80;;;;;;;7.22;63.73;98254.00;680190;28;1184;-84
2022/01/09 01:05:53;;;;;;;1.30;0.80;;;;;;;7.23;64.01;98253.13;674948;29;1258;-84
2022/01/09 01:06:14;;;;;;;0.88;0.80;;;;;;;7.23;63.61;98251.41;671870;29;1779;-84
2022/01/09 01:06:34;;;;;;;0.80;0.80;;;;;;;7.26;63.70;98256.59;677661;29;915;-84
2022/01/09 01:06:55;;;;;;;1.10;1.00;;;;;;;7.31;63.62;98258.34;680211;29;1341;-84
2022/01/09 01:07:15;;;;;;;1.20;1.10;;;;;;;7.26;63.78;98259.19;677345;29;1066;-84
2022/01/09 01:07:36;;;;;;;1.00;1.00;;;;;;;7.23;64.05;98250.53;678265;29;836;-84
2022/01/09 01:07:57;;;;;;;1.03;0.90;;;;;;;7.24;63.81;98249.69;680204;29;1252;-84
2022/01/09 01:08:18;;;;;;;1.10;0.90;;;;;;;7.25;63.96;98254.03;680931;29;1728;-84
2022/01/09 01:08:38;;;;;;;1.35;1.00;;;;;;;7.23;63.90;98245.34;680256;29;1911;-84
2022/01/09 01:08:59;;;;;;;1.10;1.00;;;;;;;7.30;64.13;98260.06;677691;29;892;-84
2022/01/09 01:09:21;;;;;;;1.10;1.00;;;;;;;7.22;64.25;98252.28;680131;29;1080;-84
2022/01/09 01:09:41;;;;;;;0.88;0.88;;;;;;;7.20;64.29;98251.44;679669;29;863;-85
2022/01/09 01:10:03;;;;;;;0.80;0.80;;;;;;;7.22;64.01;98243.63;682040;29;1114;-84
2022/01/09 01:10:27;;;;;;;0.80;0.80;;;;;;;7.30;64.01;98262.66;674242;29;1754;-84
2022/01/09 01:10:47;;;;;;;1.10;0.80;;;;;;;7.22;64.02;98243.63;682675;28;1388;-84
2022/01/09 01:11:09;;;;;;;1.30;0.90;;;;;;;7.29;63.74;98252.31;682803;29;1029;-84
2022/01/09 01:11:30;;;;;;;1.30;0.80;;;;;;;7.27;63.89;98252.28;682138;29;1206;-84
2022/01/09 01:11:51;;;;;;;1.17;0.90;;;;;;;7.27;64.11;98255.72;677355;29;1073;-84
2022/01/09 01:12:12;;;;;;;1.00;0.90;;;;;;;7.35;63.94;98260.94;680371;29;1203;-84
2022/01/09 01:12:33;;;;;;;1.10;1.00;;;;;;;7.31;63.98;98253.16;685225;28;1128;-84
2022/01/09 01:12:54;;;;;;;0.90;0.90;;;;;;;7.34;63.76;98250.56;682876;29;789;-84
2022/01/09 01:13:14;;;;;;;0.90;0.90;;;;;;;7.34;63.77;98248.84;682221;29;1535;-84
2022/01/09 01:13:50;;;;;;;0.90;0.90;;;;;;;7.32;63.58;98263.53;682826;29;1184;-84
2022/01/09 01:14:11;;;;;;;0.80;0.80;;;;;;;7.35;63.77;98252.28;684148;28;1548;-85
2022/01/09 01:14:32;;;;;;;0.80;0.80;;;;;;;7.32;63.45;98245.38;685221;28;1585;-84
2022/01/09 01:14:53;;;;;;;0.80;0.80;;;;;;;7.28;63.69;98248.81;687716;28;1658;-84
2022/01/09 01:15:14;;;;;;;0.80;0.80;;;;;;;7.32;64.02;98245.38;682338;28;1277;-84
2022/01/09 01:15:34;;;;;;;0.80;0.80;;;;;;;7.39;63.66;98251.44;677561;29;1396;-84
2022/01/09 01:15:55;;;;;;;0.70;0.70;;;;;;;7.30;63.77;98241.91;680109;29;1131;-84
2022/01/09 01:16:16;;;;;;;0.80;0.80;;;;;;;7.36;63.69;98246.22;680178;29;1500;-85
2022/01/09 01:16:37;;;;;;;0.80;0.80;;;;;;;7.35;63.61;98247.97;680254;29;773;-83
2022/01/09 01:16:58;;;;;;;0.80;0.80;;;;;;;7.32;63.67;98242.78;677451;29;1400;-83
2022/01/09 01:17:20;;;;;;;0.70;0.70;;;;;;;7.38;63.80;98250.56;682606;29;1111;-84
2022/01/09 01:17:41;;;;;;;0.70;0.70;;;;;;;7.33;63.39;98247.13;680242;29;1210;-84
2022/01/09 01:18:01;;;;;;;0.80;0.80;;;;;;;7.30;63.63;98244.50;682136;29;1141;-84
2022/01/09 01:18:22;;;;;;;0.90;0.90;;;;;;;7.40;63.84;98253.16;680741;29;1777;-84
2022/01/09 01:18:44;;;;;;;1.27;0.88;;;;;;;7.35;63.89;98257.47;682876;29;780;-84
2022/01/09 01:19:06;;;;;;;1.70;0.85;;;;;;;7.32;63.95;98237.59;680005;29;1434;-84
2022/01/09 01:19:26;;;;;;;1.70;0.80;;;;;;;7.30;63.95;98241.06;678994;29;1237;-84
2022/01/09 01:19:47;;;;;;;0.80;0.75;;;;;;;7.34;63.74;98245.38;685012;28;1072;-84
2022/01/09 01:20:09;;;;;;;0.80;0.70;;;;;;;7.31;64.29;98242.78;682661;29;1131;-84
2022/01/09 01:20:31;;;;;;;0.80;0.77;;;;;;;7.36;63.67;98262.66;684674;28;1097;-84
2022/01/09 01:20:51;;;;;;;1.40;0.80;;;;;;;7.30;63.86;98246.25;680181;29;772;-84
2022/01/09 01:21:12;;;;;;;1.30;0.80;;;;;;;7.32;64.47;98245.38;682823;29;1122;-84
2022/01/09 01:21:33;;;;;;;0.88;0.80;;;;;;;7.32;64.01;98245.38;682901;29;827;-85
2022/01/09 01:21:54;;;;;;;0.80;0.80;;;;;;;7.34;63.86;98238.47;680076;29;1227;-84
2022/01/09 01:22:16;;;;;;;0.70;0.70;;;;;;;7.32;63.65;98255.75;681078;29;1718;-84
2022/01/09 01:22:36;;;;;;;0.77;0.77;;;;;;;7.34;63.88;98245.38;677349;29;1123;-84
2022/01/09 01:22:58;;;;;;;0.90;0.90;;;;;;;7.34;64.13;98241.06;677031;29;1646;-84
2022/01/09 01:23:39;;;;;;;0.80;0.80;;;;;;;7.44;63.54;98257.50;681191;29;1885;-84
2022/01/09 01:24:00;;;;;;;0.70;0.70;;;;;;;7.31;63.88;98242.78;682586;29;1086;-83
2022/01/09 01:24:21;;;;;;;0.80;0.80;;;;;;;7.33;63.71;98244.53;682879;28;1399;-84
2022/01/09 01:24:42;;;;;;;0.70;0.70;;;;;;;7.35;63.83;98250.56;685281;28;1111;-84
2022/01/09 01:25:09;;;;;;;0.77;0.77;;;;;;;7.37;63.91;98246.22;682827;29;1052;-84
2022/01/09 01:25:30;;;;;;;0.70;0.70;;;;;;;7.38;63.92;98250.56;679757;29;929;-84
2022/01/09 01:25:52;;;;;;;0.70;0.70;;;;;;;7.33;64.22;98244.53;679796;29;1012;-84
2022/01/09 01:26:12;;;;;;;0.68;0.68;;;;;;;7.27;63.93;98247.94;679798;29;1723;-84
2022/01/09 01:26:45;;;;;;;0.68;0.68;;;;;;;7.33;64.19;98241.91;680267;29;816;-84
2022/01/09 01:27:06;;;;;;;0.70;0.70;;;;;;;7.27;63.93;98237.56;673486;29;1319;-84
2022/01/09 01:27:27;;;;;;;0.77;0.77;;;;;;;7.34;64.00;98243.66;677412;29;1093;-84
2022/01/09 01:27:48;;;;;;;0.77;0.77;;;;;;;7.35;63.54;98249.69;674926;29;1271;-84
2022/01/09 01:28:08;;;;;;;0.77;0.77;;;;;;;7.39;64.21;98251.44;674183;29;1631;-84
2022/01/09 01:28:30;;;;;;;0.80;0.80;;;;;;;7.31;63.64;98233.25;678972;29;1524;-84
2022/01/09 01:28:51;;;;;;;0.80;0.80;;;;;;;7.33;63.85;98241.03;677485;29;1915;-83
2022/01/09 01:29:11;;;;;;;0.80;0.80;;;;;;;7.34;63.94;98241.06;677436;29;974;-84
2022/01/09 01:29:32;;;;;;;0.70;0.70;;;;;;;7.32;63.77;98242.78;677529;29;1310;-84
2022/01/09 01:29:54;;;;;;;0.70;0.70;;;;;;;7.32;63.95;98235.00;677493;29;866;-84
2022/01/09 01:30:15;;;;;;;0.70;0.70;;;;;;;7.36;63.57;98247.09;684958;28;1868;-84
2022/01/09 01:30:36;;;;;;;0.70;0.70;;;;;;;7.33;63.45;98236.72;685017;28;1395;-84
2022/01/09 01:30:57;;;;;;;0.77;0.77;;;;;;;7.39;63.82;98246.25;682857;29;816;-84
2022/01/09 01:31:17;;;;;;;0.70;0.70;;;;;;;7.32;63.79;98240.19;683285;28;1155;-84
2022/01/09 01:31:38;;;;;;;0.70;0.70;;;;;;;7.40;63.60;98253.16;677546;29;1162;-84
2022/01/09 01:31:58;;;;;;;0.70;0.70;;;;;;;7.34;64.06;98233.28;676953;29;1597;-84
2022/01/09 01:32:19;;;;;;;0.80;0.80;;;;;;;7.37;63.71;98246.22;678992;29;1726;-84
2022/01/09 01:32:41;;;;;;;0.90;0.90;;;;;;;7.40;63.58;98254.03;680060;29;882;-84
2022/01/09 01:33:02;;;;;;;0.73;0.73;;;;;;;7.43;63.94;98253.16;680149;29;1048;-84
2022/01/09 01:33:23;;;;;;;1.00;0.70;;;;;;;7.39;63.72;98252.28;675924;29;1076;-84
2022/01/09 01:33:44;;;;;;;0.90;0.60;;;;;;;7.42;63.87;98254.00;674914;29;991;-84
2022/01/09 01:34:04;;;;;;;0.93;0.60;;;;;;;7.36;63.78;98244.50;674887;29;1193;-83
2022/01/09 01:34:25;;;;;;;0.70;0.70;;;;;;;7.42;63.57;98253.16;679243;29;1166;-84
2022/01/09 01:34:45;;;;;;;0.80;0.80;;;;;;;7.39;63.98;98241.06;682751;29;720;-84
2022/01/09 01:35:07;;;;;;;0.90;0.90;;;;;;;7.42;63.76;98250.56;681694;29;1651;-84
2022/01/09 01:35:28;;;;;;;0.90;0.90;;;;;;;7.39;63.68;98244.50;678966;29;1126;-84
2022/01/09 01:35:49;;;;;;;0.90;0.90;;;;;;;7.40;63.56;98250.56;685113;28;1171;-84
2022/01/09 01:36:10;;;;;;;0.80;0.80;;;;;;;7.40;63.70;98248.84;684205;28;1665;-85
2022/01/09 01:36:30;;;;;;;0.77;0.77;;;;;;;7.41;63.71;98254.88;679708;29;1176;-84
2022/01/09 01:36:51;;;;;;;0.80;0.80;;;;;;;7.43;63.64;98260.94;685079;28;1331;-84
2022/01/09 01:37:12;;;;;;;0.80;0.80;;;;;;;7.38;63.71;98249.72;677556;29;1500;-84
2022/01/09 01:37:32;;;;;;;0.90;0.90;;;;;;;7.35;64.04;98242.78;682660;29;1366;-85
2022/01/09 01:37:53;;;;;;;0.97;0.87;;;;;;;7.44;63.85;98257.50;682764;29;1280;-84
2022/01/09 01:38:13;;;;;;;0.90;0.80;;;;;;;7.44;63.82;98256.63;676541;29;1792;-85
2022/01/09 01:38:34;;;;;;;0.80;0.77;;;;;;;7.37;63.99;98245.38;680028;29;1215;-85
2022/01/09 01:38:54;;;;;;;0.70;0.70;;;;;;;7.40;64.05;98253.16;682848;29;941;-84
2022/01/09 01:39:15;;;;;;;0.70;0.70;;;;;;;7.34;63.97;98256.63;682481;29;1140;-85
2022/01/09 01:39:35;;;;;;;0.70;0.70;;;;;;;7.36;63.81;98252.28;674376;29;1206;-84
2022/01/09 01:39:56;;;;;;;0.70;0.70;;;;;;;7.36;63.95;98254.00;674720;29;945;-84
2022/01/09 01:40:19;;;;;;;0.80;0.80;;;;;;;7.44;64.01;98259.22;680454;29;1120;-84
2022/01/09 01:40:40;;;;;;;0.73;0.73;;;;;;;7.39;63.93;98259.22;685421;28;803;-84
2022/01/09 01:41:01;;;;;;;0.70;0.70;;;;;;;7.38;63.88;98267.88;682679;28;1457;-84
2022/01/09 01:41:21;;;;;;;0.70;0.70;;;;;;;7.33;63.88;98246.22;682265;28;1331;-84
2022/01/09 01:41:42;;;;;;;0.70;0.70;;;;;;;7.22;63.98;98249.69;677373;29;1016;-84
2022/01/09 01:42:02;;;;;;;0.80;0.80;;;;;;;7.29;63.74;98255.75;674645;29;1205;-84
2022/01/09 01:42:23;;;;;;;0.80;0.80;;;;;;;7.38;63.80;98265.28;674773;29;1204;-84
2022/01/09 01:42:45;;;;;;;0.80;0.80;;;;;;;7.31;64.01;98254.00;679989;29;1307;-84
2022/01/09 01:43:07;;;;;;;0.80;0.80;;;;;;;7.36;63.68;98252.28;679899;29;1898;-84
2022/01/09 01:43:27;;;;;;;0.75;0.75;;;;;;;7.38;63.72;98253.16;681661;28;1663;-85
2022/01/09 01:43:48;;;;;;;0.80;0.80;;;;;;;7.39;63.44;98252.28;685446;28;1038;-84
2022/01/09 01:44:10;;;;;;;0.80;0.80;;;;;;;7.44;64.29;98259.22;687108;28;1824;-84
2022/01/09 01:44:45;;;;;;;0.90;0.90;;;;;;;7.38;64.09;98250.56;685177;28;1366;-84
2022/01/09 01:45:07;;;;;;;0.80;0.80;;;;;;;7.39;63.88;98241.91;679904;29;1542;-84
2022/01/09 01:45:27;;;;;;;0.80;0.80;;;;;;;7.41;64.09;98249.69;681923;29;1231;-85
2022/01/09 01:45:48;;;;;;;0.70;0.70;;;;;;;7.38;63.47;98254.91;682680;29;1458;-84
2022/01/09 01:46:09;;;;;;;0.70;0.70;;;;;;;7.38;63.84;98249.72;683974;28;1560;-84
2022/01/09 01:46:29;;;;;;;0.70;0.70;;;;;;;7.42;63.99;98250.56;682428;28;1600;-84
2022/01/09 01:46:50;;;;;;;0.80;0.80;;;;;;;7.42;63.75;98250.56;682186;29;1201;-84
2022/01/09 01:47:10;;;;;;;0.80;0.80;;;;;;;7.44;63.75;98254.03;680060;28;1311;-84
2022/01/09 01:47:31;;;;;;;0.80;0.80;;;;;;;7.41;63.73;98249.69;677284;29;1196;-84